Time;durP1;ratioP1;P1;durP2;ratioP2;P2;SDS_P1;SDS_P2;PMS_P1;PMS_P2;Temp;Humidity;BMP_temperature;BMP_pressure;BME280_temperature;BME280_humidity;BME280_pressure;Samples;Min_cycle;Max_cycle;Signal;HPM_P1;HPM_P2
2022/03/19 00:00:13;;;;;;;20.58;8.27;;;;;;;6.31;73.23;104188.91;4960842;28;20046;-77
2022/03/19 00:02:38;;;;;;;21.98;8.88;;;;;;;6.29;73.21;104190.69;4972949;28;20070;-77
2022/03/19 00:05:04;;;;;;;23.55;8.65;;;;;;;6.26;73.37;104186.22;4974787;28;20442;-77
2022/03/19 00:07:30;;;;;;;20.15;7.93;;;;;;;6.21;73.24;104192.47;4973902;28;20053;-77
2022/03/19 00:09:56;;;;;;;21.77;9.32;;;;;;;6.19;73.49;104192.47;4971201;28;20042;-77
2022/03/19 00:12:21;;;;;;;25.00;9.45;;;;;;;6.18;73.86;104190.72;4982339;28;20042;-77
2022/03/19 00:14:47;;;;;;;21.73;8.48;;;;;;;6.16;73.72;104194.28;4974220;28;20537;-77
2022/03/19 00:17:12;;;;;;;22.50;8.95;;;;;;;6.13;73.87;104195.16;4990231;28;20037;-77
2022/03/19 00:19:38;;;;;;;21.02;8.90;;;;;;;6.11;73.94;104188.94;4987128;28;20458;-77
2022/03/19 00:22:05;;;;;;;22.52;8.75;;;;;;;6.08;73.71;104188.94;4987662;28;20030;-77
2022/03/19 00:24:30;;;;;;;20.60;8.70;;;;;;;6.06;74.28;104186.28;4980021;28;20087;-77
2022/03/19 00:26:55;;;;;;;22.02;9.13;;;;;;;6.05;74.30;104186.28;4976288;28;20106;-77
2022/03/19 00:29:20;;;;;;;21.25;9.27;;;;;;;6.02;74.24;104180.91;4972250;28;20062;-77
2022/03/19 00:31:46;;;;;;;21.67;9.13;;;;;;;5.95;74.46;104194.22;4975027;28;20057;-77
2022/03/19 00:34:12;;;;;;;21.30;9.05;;;;;;;5.95;74.55;104190.69;4978186;28;20045;-77
2022/03/19 00:36:37;;;;;;;26.20;10.00;;;;;;;5.97;74.48;104190.69;4982559;28;20505;-77
2022/03/19 00:39:03;;;;;;;21.58;9.27;;;;;;;5.95;74.65;104183.56;4992988;28;20034;-77
2022/03/19 00:41:28;;;;;;;22.35;8.70;;;;;;;5.93;74.73;104179.13;4991788;28;20491;-77
2022/03/19 00:43:53;;;;;;;26.38;10.18;;;;;;;5.95;74.72;104180.88;4971068;28;20808;-77
2022/03/19 00:46:19;;;;;;;23.42;9.48;;;;;;;5.95;74.62;104170.22;4992283;28;20022;-77
2022/03/19 00:48:45;;;;;;;23.05;9.85;;;;;;;5.94;74.77;104178.22;4990553;28;20092;-77
2022/03/19 00:51:10;;;;;;;21.00;9.15;;;;;;;5.92;74.82;104183.56;4992002;28;20057;-77
2022/03/19 00:53:35;;;;;;;21.75;9.25;;;;;;;5.88;74.98;104171.09;4989488;28;20402;-77
2022/03/19 00:56:01;;;;;;;22.77;9.60;;;;;;;5.87;74.84;104171.09;4984355;28;20041;-77
2022/03/19 00:58:26;;;;;;;20.23;9.50;;;;;;;5.86;75.04;104172.88;4992684;28;20030;-77
2022/03/19 01:00:51;;;;;;;25.83;11.30;;;;;;;5.85;74.83;104175.56;4984285;28;20030;-77
2022/03/19 01:03:16;;;;;;;26.63;9.35;;;;;;;5.80;74.71;104170.22;4991105;28;20066;-77
2022/03/19 01:05:43;;;;;;;24.60;9.57;;;;;;;5.77;75.11;104165.75;4979279;28;20081;-77
2022/03/19 01:08:08;;;;;;;25.83;10.65;;;;;;;5.76;75.64;104176.44;4975624;28;20046;-77
2022/03/19 01:10:35;;;;;;;22.08;10.48;;;;;;;5.75;75.72;104169.31;4975889;28;20031;-77
2022/03/19 01:13:03;;;;;;;26.15;10.77;;;;;;;5.73;75.32;104169.31;4986934;28;20030;-77
2022/03/19 01:15:29;;;;;;;22.15;10.07;;;;;;;5.71;75.63;104164.84;4983675;28;20030;-77
2022/03/19 01:17:54;;;;;;;23.13;9.93;;;;;;;5.66;75.57;104170.19;4985651;28;20041;-77
2022/03/19 01:20:20;;;;;;;23.50;10.45;;;;;;;5.65;75.71;104167.53;4986647;28;20072;-77
2022/03/19 01:22:46;;;;;;;24.40;9.73;;;;;;;5.64;75.96;104166.66;4990163;28;20092;-77
2022/03/19 01:25:13;;;;;;;21.38;10.30;;;;;;;5.62;76.01;104163.06;4980447;28;20059;-77
2022/03/19 01:27:40;;;;;;;22.15;10.77;;;;;;;5.60;76.03;104165.75;4983208;28;20040;-77
2022/03/19 01:30:07;;;;;;;24.92;10.63;;;;;;;5.58;76.04;104159.53;4982742;28;20030;-77
2022/03/19 01:32:33;;;;;;;25.63;9.98;;;;;;;5.55;76.17;104158.63;4993259;28;20050;-77
2022/03/19 01:34:59;;;;;;;24.98;11.70;;;;;;;5.52;76.31;104155.94;4980739;28;20510;-77
2022/03/19 01:37:24;;;;;;;28.88;11.13;;;;;;;5.48;76.31;104160.41;4983362;28;20026;-76
2022/03/19 01:39:53;;;;;;;24.08;10.85;;;;;;;5.45;76.41;104151.50;4992064;28;20133;-76
2022/03/19 01:42:24;;;;;;;26.95;12.40;;;;;;;5.40;76.64;104155.06;4982090;28;20538;-76
2022/03/19 01:44:49;;;;;;;25.75;12.88;;;;;;;5.39;76.62;104149.72;4981704;28;20030;-76
2022/03/19 01:47:15;;;;;;;26.90;12.55;;;;;;;5.37;76.76;104155.06;4987287;28;20397;-76
2022/03/19 01:49:41;;;;;;;24.42;11.68;;;;;;;5.35;76.81;104150.59;4983659;28;20041;-76
2022/03/19 01:52:06;;;;;;;23.95;11.70;;;;;;;5.33;77.16;104149.69;4991646;28;20034;-76
2022/03/19 01:54:34;;;;;;;26.85;12.90;;;;;;;5.34;77.36;104146.16;4992456;28;20042;-76
2022/03/19 01:57:01;;;;;;;27.10;13.48;;;;;;;5.35;77.64;104158.59;4992627;28;20081;-76
2022/03/19 01:59:30;;;;;;;25.52;13.68;;;;;;;5.36;77.42;104137.28;4990208;28;20213;-76
2022/03/19 02:01:56;;;;;;;23.50;11.85;;;;;;;5.38;77.75;104138.16;4975584;28;20030;-75
2022/03/19 02:04:21;;;;;;;25.83;13.27;;;;;;;5.37;77.63;104136.41;4977000;28;20549;-76
2022/03/19 02:06:47;;;;;;;25.70;12.63;;;;;;;5.38;77.75;104145.28;4990270;28;20458;-75
2022/03/19 02:09:12;;;;;;;28.85;13.73;;;;;;;5.40;77.75;104127.47;5006274;28;20030;-75
2022/03/19 02:11:37;;;;;;;27.23;13.70;;;;;;;5.40;77.70;104130.16;4982475;28;20039;-75
2022/03/19 02:14:03;;;;;;;27.25;12.15;;;;;;;5.41;78.01;104129.28;4991851;28;20433;-75
2022/03/19 02:16:29;;;;;;;29.88;14.65;;;;;;;5.39;78.21;104125.72;4990951;28;20053;-75
2022/03/19 02:18:57;;;;;;;28.30;15.95;;;;;;;5.38;78.21;104119.47;4989324;28;20071;-75
2022/03/19 02:21:22;;;;;;;24.98;14.93;;;;;;;5.38;78.36;104122.16;4977262;28;20396;-75
2022/03/19 02:26:45;;;;;;;25.20;14.35;;;;;;;5.38;78.03;104122.16;4989116;28;20510;-75
2022/03/19 02:29:11;;;;;;;30.15;15.65;;;;;;;5.40;78.62;104116.81;4974470;28;20035;-75
2022/03/19 02:31:41;;;;;;;26.27;14.20;;;;;;;5.40;78.56;104112.38;4973743;28;20398;-75
2022/03/19 02:34:10;;;;;;;26.08;14.32;;;;;;;5.40;78.77;104106.13;4979138;28;20045;-75
2022/03/19 02:36:37;;;;;;;25.73;13.88;;;;;;;5.40;78.50;104101.72;4981898;28;20038;-75
2022/03/19 02:39:13;;;;;;;28.77;14.27;;;;;;;5.40;78.67;104092.81;4982898;28;20026;-75
2022/03/19 02:41:44;;;;;;;27.88;15.32;;;;;;;5.38;79.00;104094.59;4976701;28;20080;-75
2022/03/19 02:44:10;;;;;;;26.52;15.00;;;;;;;5.37;78.82;104096.38;4984197;28;20398;-75
2022/03/19 02:46:38;;;;;;;25.50;15.05;;;;;;;5.36;79.01;104096.34;4974464;28;20034;-75
2022/03/19 02:49:03;;;;;;;26.85;14.77;;;;;;;5.34;79.18;104088.34;4988965;28;20061;-75
2022/03/19 02:51:29;;;;;;;29.95;15.50;;;;;;;5.31;79.25;104084.81;4977406;28;20119;-75
2022/03/19 02:53:54;;;;;;;30.38;15.95;;;;;;;5.30;79.42;104085.69;4984517;28;20061;-75
2022/03/19 02:56:19;;;;;;;27.98;14.52;;;;;;;5.30;79.43;104085.69;4973377;28;20069;-75
2022/03/19 02:58:44;;;;;;;30.83;14.73;;;;;;;5.29;79.88;104082.13;4977310;28;20026;-75
2022/03/19 03:01:10;;;;;;;27.63;13.93;;;;;;;5.28;79.98;104087.47;4988080;28;20038;-75
2022/03/19 03:03:35;;;;;;;26.60;14.38;;;;;;;5.27;79.65;104081.25;4970606;28;20511;-75
2022/03/19 03:06:00;;;;;;;26.85;14.77;;;;;;;5.28;80.00;104084.81;4975008;28;20104;-75
2022/03/19 03:08:25;;;;;;;29.77;15.27;;;;;;;5.28;80.31;104087.47;4975224;28;20023;-75
2022/03/19 03:10:51;;;;;;;26.60;13.73;;;;;;;5.24;80.28;104091.91;4978542;28;20041;-75
2022/03/19 03:13:16;;;;;;;28.08;14.38;;;;;;;5.24;80.08;104084.81;4973713;28;20030;-75
2022/03/19 03:15:41;;;;;;;30.05;15.13;;;;;;;5.25;80.52;104091.00;4981535;28;20047;-75
2022/03/19 03:18:06;;;;;;;25.75;14.57;;;;;;;5.26;80.17;104090.13;4998691;28;20048;-75
2022/03/19 03:20:33;;;;;;;26.58;14.80;;;;;;;5.26;80.21;104092.81;4971837;28;20045;-75
2022/03/19 03:22:58;;;;;;;24.80;13.60;;;;;;;5.24;80.37;104091.91;4980353;28;20502;-75
2022/03/19 03:25:23;;;;;;;27.35;14.32;;;;;;;5.21;80.49;104087.47;4978184;28;20069;-75
2022/03/19 03:27:49;;;;;;;24.17;13.35;;;;;;;5.21;80.66;104090.13;4978891;28;20038;-75
2022/03/19 03:30:15;;;;;;;28.42;13.52;;;;;;;5.22;80.93;104091.00;4982104;28;20026;-75
2022/03/19 03:32:40;;;;;;;29.98;14.25;;;;;;;5.22;81.02;104093.69;4977388;28;20026;-75
2022/03/19 03:35:06;;;;;;;29.90;14.02;;;;;;;5.21;81.42;104086.56;4987340;28;20096;-75
2022/03/19 03:37:31;;;;;;;25.52;12.82;;;;;;;5.21;81.13;104092.81;4957133;28;20050;-75
2022/03/19 03:39:56;;;;;;;26.17;13.63;;;;;;;5.19;80.53;104091.91;4972463;28;20031;-75
2022/03/19 03:42:21;;;;;;;31.08;13.55;;;;;;;5.17;80.94;104091.00;4981034;28;20045;-75
2022/03/19 03:44:47;;;;;;;26.52;13.35;;;;;;;5.14;81.14;104091.00;4987672;28;20041;-75
2022/03/19 03:47:12;;;;;;;27.33;12.75;;;;;;;5.13;81.19;104091.00;4978438;28;20098;-75
2022/03/19 03:49:37;;;;;;;26.92;12.55;;;;;;;5.11;81.28;104087.44;5005045;28;20493;-75
2022/03/19 03:52:03;;;;;;;26.08;13.13;;;;;;;5.08;81.46;104085.63;4980093;28;20049;-75
2022/03/19 03:54:28;;;;;;;28.73;12.52;;;;;;;5.07;81.46;104083.88;4985837;28;20034;-75
2022/03/19 03:56:53;;;;;;;25.20;13.38;;;;;;;5.06;81.34;104087.44;4972827;28;20035;-75
2022/03/19 03:59:19;;;;;;;25.95;14.15;;;;;;;5.04;81.80;104089.22;4981194;28;20034;-75
2022/03/19 04:01:44;;;;;;;25.05;13.70;;;;;;;5.02;81.85;104080.31;4974051;28;20065;-75
2022/03/19 04:04:10;;;;;;;25.40;13.60;;;;;;;5.02;81.70;104080.31;4974613;28;20039;-75
2022/03/19 04:06:35;;;;;;;26.85;15.05;;;;;;;5.01;81.93;104083.88;4973893;28;20026;-75
2022/03/19 04:09:00;;;;;;;25.58;12.80;;;;;;;4.99;81.36;104083.88;4985240;28;20734;-75
2022/03/19 04:11:25;;;;;;;30.33;13.48;;;;;;;4.96;81.54;104075.84;4972977;28;20053;-75
2022/03/19 04:13:51;;;;;;;32.85;14.68;;;;;;;4.96;82.13;104080.31;4989336;28;20169;-75
2022/03/19 04:16:16;;;;;;;29.20;14.02;;;;;;;4.92;82.09;104073.19;4982746;28;20034;-75
2022/03/19 04:18:41;;;;;;;25.52;13.57;;;;;;;4.90;81.80;104078.50;4979591;28;20487;-75
2022/03/19 04:21:06;;;;;;;28.52;14.20;;;;;;;4.89;81.99;104072.28;4972052;28;20156;-75
2022/03/19 04:23:33;;;;;;;31.77;13.82;;;;;;;4.90;82.44;104071.41;4985695;28;20126;-75
2022/03/19 04:25:58;;;;;;;28.00;14.15;;;;;;;4.88;82.13;104067.84;4975543;28;20047;-75
2022/03/19 04:28:23;;;;;;;29.73;13.88;;;;;;;4.85;82.00;104067.84;4984993;28;20383;-75
2022/03/19 04:30:49;;;;;;;31.15;12.80;;;;;;;4.84;81.79;104076.72;4980327;28;20030;-75
2022/03/19 04:33:20;;;;;;;26.08;12.85;;;;;;;4.81;82.00;104081.16;4981682;28;20029;-75
2022/03/19 04:38:29;;;;;;;24.63;12.48;;;;;;;4.75;82.08;104073.16;4973770;28;20117;-75
2022/03/19 04:40:54;;;;;;;26.30;12.73;;;;;;;4.73;82.28;104066.03;4976057;28;20034;-75
2022/03/19 04:43:20;;;;;;;26.58;12.40;;;;;;;4.73;82.42;104059.81;4984570;28;20113;-75
2022/03/19 04:45:45;;;;;;;28.90;13.32;;;;;;;4.72;83.03;104064.25;4995992;28;20068;-75
2022/03/19 04:48:11;;;;;;;24.63;11.85;;;;;;;4.71;82.61;104064.22;4985755;28;20057;-75
2022/03/19 04:50:42;;;;;;;30.17;12.60;;;;;;;4.70;82.89;104062.44;4984604;28;20465;-75
2022/03/19 04:53:08;;;;;;;25.42;11.75;;;;;;;4.70;82.93;104063.34;4971631;28;20442;-75
2022/03/19 04:55:38;;;;;;;25.05;12.48;;;;;;;4.68;82.71;104058.91;4978104;28;20031;-75
2022/03/19 04:58:04;;;;;;;25.40;11.98;;;;;;;4.66;82.04;104064.22;4987621;28;20058;-75
2022/03/19 05:00:30;;;;;;;24.70;12.70;;;;;;;4.66;82.58;104060.69;4982705;28;20029;-75
2022/03/19 05:02:56;;;;;;;28.88;12.50;;;;;;;4.64;82.80;104062.44;4982398;28;20026;-75
2022/03/19 05:05:24;;;;;;;30.77;12.43;;;;;;;4.60;82.24;104065.97;4969195;28;20026;-75
2022/03/19 05:07:53;;;;;;;26.13;11.68;;;;;;;4.57;82.41;104068.63;4962487;28;20030;-75
2022/03/19 05:13:03;;;;;;;26.50;12.10;;;;;;;4.52;82.85;104064.19;4972158;28;20037;-75
2022/03/19 05:15:28;;;;;;;31.08;14.48;;;;;;;4.49;82.66;104056.16;4980625;28;20398;-75
2022/03/19 05:17:53;;;;;;;23.52;11.88;;;;;;;4.47;82.63;104052.63;4982384;28;20050;-75
2022/03/19 05:20:18;;;;;;;25.73;12.95;;;;;;;4.43;83.00;104064.13;4970713;28;20056;-75
2022/03/19 05:22:44;;;;;;;30.13;12.65;;;;;;;4.44;83.44;104065.91;4975593;28;20454;-75
2022/03/19 05:25:09;;;;;;;29.58;12.68;;;;;;;4.40;83.37;104069.44;5006629;28;20049;-75
2022/03/19 05:27:35;;;;;;;28.73;13.77;;;;;;;4.39;83.82;104062.34;4997855;28;20018;-75
2022/03/19 05:30:00;;;;;;;27.45;12.75;;;;;;;4.37;83.46;104061.44;4992160;28;20038;-75
2022/03/19 05:32:26;;;;;;;31.42;14.70;;;;;;;4.35;83.89;104068.56;5001231;28;20481;-75
2022/03/19 05:34:52;;;;;;;28.00;12.48;;;;;;;4.36;84.04;104072.97;4974505;28;20041;-75
2022/03/19 05:37:18;;;;;;;26.13;14.35;;;;;;;4.35;84.32;104076.53;4972921;28;20451;-75
2022/03/19 05:39:43;;;;;;;26.95;13.02;;;;;;;4.35;84.16;104068.56;4978414;28;20030;-74
2022/03/19 05:42:09;;;;;;;26.88;13.73;;;;;;;4.35;84.57;104071.22;4985135;28;20508;-74
2022/03/19 05:44:35;;;;;;;25.67;13.25;;;;;;;4.36;84.31;104067.66;4974711;28;20118;-74
2022/03/19 05:47:00;;;;;;;26.33;12.55;;;;;;;4.34;83.99;104070.31;4991933;28;20398;-74
2022/03/19 05:49:27;;;;;;;26.67;12.70;;;;;;;4.35;84.27;104072.09;4982732;28;20061;-74
2022/03/19 05:51:54;;;;;;;27.75;13.20;;;;;;;4.37;84.43;104066.78;4985082;28;20030;-74
2022/03/19 05:54:19;;;;;;;30.52;13.40;;;;;;;4.36;84.12;104067.66;4990488;28;20470;-75
2022/03/19 05:56:45;;;;;;;30.50;13.93;;;;;;;4.36;84.13;104071.22;4974369;28;20037;-75
2022/03/19 05:59:11;;;;;;;28.77;12.88;;;;;;;4.38;84.47;104063.25;4982220;28;20082;-75
2022/03/19 06:01:36;;;;;;;26.98;13.52;;;;;;;4.39;84.61;104067.66;4979619;28;20050;-75
2022/03/19 06:04:01;;;;;;;25.63;12.90;;;;;;;4.40;84.56;104065.91;4986603;28;20482;-75
2022/03/19 06:06:28;;;;;;;29.13;13.25;;;;;;;4.40;84.37;104064.13;4980026;28;20145;-75
2022/03/19 06:08:53;;;;;;;25.17;12.80;;;;;;;4.42;84.40;104072.13;4988917;28;20038;-75
2022/03/19 06:11:19;;;;;;;24.13;13.10;;;;;;;4.43;84.04;104068.59;4981657;28;20179;-75
2022/03/19 06:13:44;;;;;;;26.40;13.38;;;;;;;4.46;84.34;104065.94;4973435;28;20039;-75
2022/03/19 06:16:10;;;;;;;26.55;13.40;;;;;;;4.46;84.48;104074.78;4983351;28;20033;-75
2022/03/19 06:18:35;;;;;;;26.73;12.48;;;;;;;4.49;84.58;104084.59;4983582;28;20038;-75
2022/03/19 06:21:01;;;;;;;24.08;12.15;;;;;;;4.51;84.68;104077.47;4986246;28;20030;-75
2022/03/19 06:23:27;;;;;;;26.15;13.05;;;;;;;4.53;84.71;104076.59;4999381;28;20074;-75
2022/03/19 06:25:52;;;;;;;30.15;14.20;;;;;;;4.58;84.38;104078.41;4976009;28;20074;-75
2022/03/19 06:28:18;;;;;;;29.30;13.70;;;;;;;4.61;84.54;104075.75;4982887;28;20120;-75
2022/03/19 06:30:43;;;;;;;26.77;12.20;;;;;;;4.63;84.04;104076.66;4991371;28;20037;-75
2022/03/19 06:33:11;;;;;;;26.25;12.63;;;;;;;4.68;84.45;104080.22;4991866;28;20029;-75
2022/03/19 06:38:23;;;;;;;31.52;14.50;;;;;;;4.73;84.15;104079.34;4975779;28;20061;-75
2022/03/19 06:40:49;;;;;;;28.38;13.20;;;;;;;4.79;84.18;104085.56;4985804;28;20023;-75
2022/03/19 06:43:14;;;;;;;26.63;14.05;;;;;;;4.82;84.27;104085.59;4975231;28;20494;-75
2022/03/19 06:45:39;;;;;;;27.05;13.90;;;;;;;4.85;84.31;104088.28;4985249;28;20144;-75
2022/03/19 06:48:05;;;;;;;28.67;13.60;;;;;;;4.89;84.37;104082.03;4983619;28;20042;-75
2022/03/19 06:50:31;;;;;;;27.15;13.70;;;;;;;4.92;84.03;104084.75;4981764;28;20031;-75
2022/03/19 06:52:56;;;;;;;26.98;12.82;;;;;;;4.98;84.53;104081.19;4973023;28;20030;-75
2022/03/19 06:55:21;;;;;;;28.67;13.80;;;;;;;5.03;83.82;104079.44;4980598;28;20034;-75
2022/03/19 06:57:47;;;;;;;28.65;13.88;;;;;;;5.07;84.03;104081.22;4982305;28;20038;-75
2022/03/19 07:00:12;;;;;;;30.63;14.25;;;;;;;5.10;84.08;104078.56;4986693;28;20022;-75
2022/03/19 07:02:54;;;;;;;25.88;12.95;;;;;;;5.15;83.79;104074.09;4988630;28;20057;-75
2022/03/19 07:05:25;;;;;;;25.05;12.15;;;;;;;5.18;83.43;104079.47;4985179;28;20105;-75
2022/03/19 07:07:51;;;;;;;27.83;13.70;;;;;;;5.22;83.48;104072.34;4979433;28;20025;-75
2022/03/19 07:10:18;;;;;;;27.38;13.15;;;;;;;5.26;83.69;104074.13;4989539;28;20030;-75
2022/03/19 07:12:54;;;;;;;33.28;14.63;;;;;;;5.30;83.13;104080.34;4974547;28;20046;-75
2022/03/19 07:15:27;;;;;;;30.23;14.18;;;;;;;5.33;83.13;104073.25;4966633;28;20030;-75
2022/03/19 07:17:53;;;;;;;25.88;13.20;;;;;;;5.37;83.31;104071.47;4980609;28;20023;-75
2022/03/19 07:20:19;;;;;;;26.63;13.02;;;;;;;5.42;82.84;104075.03;4978964;28;20038;-75
2022/03/19 07:22:54;;;;;;;28.63;12.95;;;;;;;5.48;82.96;104071.50;4980413;28;20034;-75
2022/03/19 07:25:21;;;;;;;28.63;13.55;;;;;;;5.52;82.50;104070.56;4980864;28;20514;-75
2022/03/19 07:27:49;;;;;;;27.83;13.00;;;;;;;5.55;82.67;104068.81;4979897;28;20069;-75
2022/03/19 07:30:14;;;;;;;27.25;13.85;;;;;;;5.60;82.72;104075.03;4979639;28;20038;-75
2022/03/19 07:32:40;;;;;;;28.83;13.45;;;;;;;5.65;82.86;104076.81;4978264;28;20049;-74
2022/03/19 07:35:06;;;;;;;27.50;14.15;;;;;;;5.69;82.43;104068.78;4978661;28;20030;-79
2022/03/19 07:37:32;;;;;;;25.55;12.75;;;;;;;5.74;82.18;104064.34;4981158;28;20038;-82
2022/03/19 07:39:58;;;;;;;28.38;12.85;;;;;;;5.78;82.01;104063.47;4980032;28;20034;-80
2022/03/19 07:42:25;;;;;;;25.05;11.80;;;;;;;5.84;81.98;104062.56;4976972;28;20037;-80
2022/03/19 07:44:50;;;;;;;29.00;12.77;;;;;;;5.91;82.15;104058.09;4981477;28;20030;-80
2022/03/19 07:47:16;;;;;;;27.08;11.73;;;;;;;5.98;82.12;104059.00;4983126;28;20045;-81
2022/03/19 07:49:42;;;;;;;32.45;13.27;;;;;;;6.02;81.30;104063.44;4979315;28;20034;-81
2022/03/19 07:52:09;;;;;;;29.38;12.50;;;;;;;6.08;81.34;104066.97;4983244;28;20593;-81
2022/03/19 07:54:36;;;;;;;25.77;12.10;;;;;;;6.14;80.95;104059.88;4980269;28;20034;-80
2022/03/19 07:57:02;;;;;;;31.25;12.55;;;;;;;6.19;80.70;104064.28;4982336;28;20041;-81
2022/03/19 07:59:27;;;;;;;25.55;12.02;;;;;;;6.24;80.41;104053.59;4984422;28;20080;-81
2022/03/19 08:01:53;;;;;;;25.70;11.77;;;;;;;6.29;79.90;104057.13;4984054;28;20117;-81
2022/03/19 08:04:18;;;;;;;30.75;11.88;;;;;;;6.35;79.81;104061.56;4983119;28;20398;-80
2022/03/19 08:06:43;;;;;;;27.75;11.82;;;;;;;6.40;79.49;104065.09;4979108;28;20573;-80
2022/03/19 08:09:10;;;;;;;26.65;12.10;;;;;;;6.45;78.94;104066.84;4982060;28;20064;-80
2022/03/19 08:11:36;;;;;;;25.33;11.45;;;;;;;6.49;78.40;104065.06;4983371;28;20486;-80
2022/03/19 08:14:02;;;;;;;25.08;10.95;;;;;;;6.55;79.11;104062.38;4981669;28;20069;-81
2022/03/19 08:16:28;;;;;;;28.20;12.38;;;;;;;6.61;78.91;104050.75;4981486;28;20026;-80
2022/03/19 08:18:53;;;;;;;24.55;10.93;;;;;;;6.68;78.82;104051.59;4980655;28;20073;-80
2022/03/19 08:21:18;;;;;;;24.08;10.70;;;;;;;6.75;78.20;104053.34;4980675;28;20042;-79
2022/03/19 08:23:46;;;;;;;25.38;10.68;;;;;;;6.80;78.23;104057.78;4982140;28;20062;-80
2022/03/19 08:26:11;;;;;;;24.10;10.77;;;;;;;6.87;77.33;104063.06;4980936;28;20028;-80
2022/03/19 08:28:37;;;;;;;26.55;10.52;;;;;;;6.94;76.76;104064.81;4978125;28;20030;-77
2022/03/19 08:31:02;;;;;;;24.13;10.38;;;;;;;7.05;76.15;104059.41;4981118;28;20049;-77
2022/03/19 08:33:27;;;;;;;26.42;9.93;;;;;;;7.11;76.93;104056.69;4980207;28;20520;-76
2022/03/19 08:35:52;;;;;;;25.50;11.50;;;;;;;7.20;75.70;104056.63;4978595;28;20045;-77
2022/03/19 08:41:02;;;;;;;21.10;9.40;;;;;;;7.31;74.95;104057.44;4981751;28;20095;-78
2022/03/19 08:43:27;;;;;;;25.65;10.05;;;;;;;7.35;74.47;104056.50;4981224;28;20034;-75
2022/03/19 08:45:52;;;;;;;25.98;9.65;;;;;;;7.39;74.33;104056.50;4977236;28;20057;-78
2022/03/19 08:48:18;;;;;;;26.27;9.88;;;;;;;7.43;73.84;104051.09;4984049;28;20775;-76
2022/03/19 08:50:46;;;;;;;25.38;10.20;;;;;;;7.48;73.61;104053.72;4979457;28;20057;-81
2022/03/19 08:53:15;;;;;;;21.83;8.32;;;;;;;7.52;73.60;104052.78;4980093;28;20081;-76
2022/03/19 08:55:41;;;;;;;23.58;10.07;;;;;;;7.55;72.99;104052.78;4980480;28;20036;-77
2022/03/19 08:58:06;;;;;;;24.48;10.18;;;;;;;7.60;72.86;104045.59;4984950;28;20031;-77
2022/03/19 09:00:32;;;;;;;24.33;9.20;;;;;;;7.65;73.48;104054.47;4984844;28;20387;-76
2022/03/19 09:02:57;;;;;;;24.42;9.90;;;;;;;7.69;73.67;104056.22;4985859;28;20034;-76
2022/03/19 09:05:23;;;;;;;19.10;8.48;;;;;;;7.73;72.48;104053.50;4981937;28;20034;-76
2022/03/19 09:07:49;;;;;;;21.33;8.82;;;;;;;7.77;71.17;104047.22;4985489;28;20829;-77
2022/03/19 09:10:14;;;;;;;27.60;10.35;;;;;;;7.83;71.47;104050.72;4982500;28;20034;-78
2022/03/19 09:12:41;;;;;;;25.35;9.45;;;;;;;7.88;72.52;104051.56;4984041;28;20125;-77
2022/03/19 09:15:09;;;;;;;24.58;9.35;;;;;;;7.92;72.18;104044.41;4983642;28;20584;-77
2022/03/19 09:17:34;;;;;;;20.13;8.60;;;;;;;7.97;71.86;104039.84;4982168;28;20042;-77
2022/03/19 09:19:59;;;;;;;21.80;9.20;;;;;;;8.01;70.96;104040.72;4982429;28;20656;-77
2022/03/19 09:22:24;;;;;;;27.10;10.45;;;;;;;8.05;71.27;104038.00;4980230;28;20027;-77
2022/03/19 09:24:50;;;;;;;22.30;9.27;;;;;;;8.11;71.04;104041.50;4984086;28;20058;-78
2022/03/19 09:27:15;;;;;;;22.83;9.95;;;;;;;8.17;71.78;104039.63;4983146;28;20034;-78
2022/03/19 09:29:42;;;;;;;21.13;8.77;;;;;;;8.21;71.04;104030.66;4982607;28;20042;-77
2022/03/19 09:32:09;;;;;;;22.45;9.23;;;;;;;8.26;69.87;104035.97;4984127;28;20516;-77
2022/03/19 09:34:35;;;;;;;21.77;8.52;;;;;;;8.31;70.91;104034.09;4980811;28;20099;-77
2022/03/19 09:37:00;;;;;;;18.88;8.40;;;;;;;8.34;69.04;104025.13;4988809;28;20034;-78
2022/03/19 09:39:25;;;;;;;21.67;9.35;;;;;;;8.37;69.85;104023.28;4986174;28;20030;-77
2022/03/19 09:41:51;;;;;;;22.85;9.43;;;;;;;8.41;69.38;104024.16;4985538;28;20038;-78
2022/03/19 09:44:17;;;;;;;26.50;9.07;;;;;;;8.44;69.64;104032.19;4992915;28;20026;-78
2022/03/19 09:46:43;;;;;;;24.15;8.75;;;;;;;8.47;68.73;104012.50;4990817;28;20109;-78
2022/03/19 09:49:10;;;;;;;20.77;8.23;;;;;;;8.52;67.77;104021.34;4992642;28;20056;-77
2022/03/19 09:51:40;;;;;;;20.75;8.27;;;;;;;8.56;68.08;104007.91;4992136;28;20105;-78
2022/03/19 09:54:05;;;;;;;27.27;8.60;;;;;;;8.64;67.80;104015.84;4992180;28;20058;-77
2022/03/19 09:56:32;;;;;;;20.55;8.43;;;;;;;8.68;69.68;104006.84;4992342;28;20073;-78
2022/03/19 09:58:57;;;;;;;20.77;7.97;;;;;;;8.68;66.82;104000.56;4991016;28;20037;-77
2022/03/19 10:01:22;;;;;;;23.73;7.60;;;;;;;8.71;66.80;104001.44;4991089;28;20030;-78
2022/03/19 10:03:49;;;;;;;22.92;7.88;;;;;;;8.72;66.78;104000.50;4990701;28;20110;-78
2022/03/19 10:09:00;;;;;;;20.88;6.93;;;;;;;8.86;64.74;103994.06;4992723;28;20044;-74
2022/03/19 10:11:35;;;;;;;21.80;7.30;;;;;;;8.92;64.37;103980.56;4995994;28;20461;-74
2022/03/19 10:14:06;;;;;;;23.75;7.32;;;;;;;9.00;62.36;103983.09;4995048;28;20062;-75
2022/03/19 10:16:34;;;;;;;18.58;6.45;;;;;;;9.02;63.56;103968.75;4994770;28;20026;-74
2022/03/19 10:19:08;;;;;;;19.35;5.85;;;;;;;9.09;59.82;103972.22;4995238;28;20479;-74
2022/03/19 10:21:41;;;;;;;21.17;6.93;;;;;;;9.14;61.62;103961.44;4999047;28;20061;-74
2022/03/19 10:24:08;;;;;;;19.77;6.32;;;;;;;9.23;59.79;103974.69;4995048;28;20057;-77
2022/03/19 10:26:37;;;;;;;24.08;6.95;;;;;;;9.25;60.31;103967.47;4992150;28;20036;-79
2022/03/19 10:29:09;;;;;;;24.23;6.38;;;;;;;9.27;59.58;103953.13;5003536;28;20436;-78
2022/03/19 10:31:35;;;;;;;20.40;5.78;;;;;;;9.31;57.21;103958.44;4992180;28;20451;-78
2022/03/19 10:34:03;;;;;;;15.63;5.28;;;;;;;9.34;57.84;103945.84;4985047;28;20125;-78
2022/03/19 10:36:31;;;;;;;17.30;5.65;;;;;;;9.36;56.23;103946.69;4972065;28;20509;-78
2022/03/19 10:38:57;;;;;;;17.00;5.65;;;;;;;9.41;57.18;103936.78;4972127;28;20456;-78
2022/03/19 10:41:22;;;;;;;19.63;5.95;;;;;;;9.52;54.82;103933.88;4971989;28;20037;-78
2022/03/19 10:43:48;;;;;;;18.20;5.40;;;;;;;9.60;54.76;103934.63;4972106;28;20443;-78
2022/03/19 10:46:16;;;;;;;19.00;5.88;;;;;;;9.62;53.38;103927.41;4983461;28;20497;-78
2022/03/19 10:48:41;;;;;;;18.45;5.75;;;;;;;9.68;53.72;103926.41;4989712;28;20398;-78
2022/03/19 10:51:10;;;;;;;20.67;5.03;;;;;;;9.72;51.92;103914.69;4991898;28;20353;-78
2022/03/19 10:53:36;;;;;;;16.33;4.25;;;;;;;9.79;50.07;103931.53;4990712;28;20034;-78
2022/03/19 10:56:06;;;;;;;16.90;4.68;;;;;;;9.82;48.96;103914.50;4991757;28;20035;-78
2022/03/19 10:58:32;;;;;;;;;;;;;;;9.84;50.11;103909.97;4975627;28;20066;-78
2022/03/19 11:01:00;;;;;;;15.27;4.30;;;;;;;9.93;49.90;103915.16;4990812;28;19963;-78
2022/03/19 11:03:28;;;;;;;16.75;3.97;;;;;;;9.97;44.75;103906.09;4990997;28;20026;-78
2022/03/19 11:06:04;;;;;;;16.35;5.10;;;;;;;10.05;46.79;103911.31;4989869;28;20042;-78
2022/03/19 11:08:37;;;;;;;13.82;4.25;;;;;;;10.13;48.46;103890.50;4989879;28;20026;-78
2022/03/19 11:11:07;;;;;;;20.20;4.50;;;;;;;10.17;45.25;103894.03;4991688;28;20026;-78
2022/03/19 11:13:39;;;;;;;14.88;4.32;;;;;;;10.20;44.87;103889.44;4991717;28;20471;-78
2022/03/19 11:16:06;;;;;;;13.57;4.13;;;;;;;10.26;42.98;103880.38;4990462;28;20056;-78
2022/03/19 11:18:31;;;;;;;15.38;4.30;;;;;;;10.31;45.95;103876.66;4990558;28;20026;-78
2022/03/19 11:20:57;;;;;;;15.02;3.83;;;;;;;10.37;42.71;103878.34;4990403;28;20397;-78
2022/03/19 11:23:30;;;;;;;26.88;4.55;;;;;;;10.42;41.75;103873.72;4990158;28;20461;-78
2022/03/19 11:25:57;;;;;;;13.77;3.92;;;;;;;10.47;41.74;103879.91;4990418;28;20051;-77
2022/03/19 11:28:23;;;;;;;15.48;4.78;;;;;;;10.49;40.65;103867.28;4991736;28;20398;-79
2022/03/19 11:31:08;;;;;;;13.13;4.50;;;;;;;10.54;42.73;103863.59;4990592;28;20030;-78